createdAt,value
2023-03-29T00:00:06.236Z,25.94
2023-03-29T00:00:16.242Z,25.95
2023-03-29T00:00:26.255Z,25.95
2023-03-29T00:00:36.277Z,25.95
2023-03-29T00:00:46.292Z,25.95
2023-03-29T00:00:56.321Z,25.95
2023-03-29T00:01:06.318Z,25.96
2023-03-29T00:01:35.187Z,25.89
2023-03-29T00:01:35.476Z,25.96
2023-03-29T00:01:36.608Z,25.87
2023-03-29T00:01:46.533Z,25.90
2023-03-29T00:01:56.782Z,25.90
2023-03-29T00:02:06.715Z,25.92
2023-03-29T00:02:16.908Z,25.93
2023-03-29T00:02:26.966Z,25.92
2023-03-29T00:02:37.097Z,25.93
2023-03-29T00:02:47.226Z,25.93
2023-03-29T00:02:57.236Z,25.93
2023-03-29T00:03:07.394Z,25.93
2023-03-29T00:03:17.491Z,25.93
2023-03-29T00:03:27.470Z,25.93
2023-03-29T00:03:37.465Z,25.93
2023-03-29T00:03:47.555Z,25.93
2023-03-29T00:03:59.761Z,25.93
2023-03-29T00:04:07.791Z,25.90
2023-03-29T00:04:17.749Z,25.92
2023-03-29T00:04:27.840Z,25.93
2023-03-29T00:04:38.218Z,25.94
2023-03-29T00:04:48.200Z,25.94
2023-03-29T00:04:58.201Z,25.94
2023-03-29T00:05:08.214Z,25.95
2023-03-29T00:05:18.213Z,25.95
2023-03-29T00:05:28.303Z,25.96
2023-03-29T00:05:38.309Z,25.95
2023-03-29T00:05:48.301Z,25.96
2023-03-29T00:05:58.431Z,25.95
2023-03-29T00:06:08.434Z,25.95
2023-03-29T00:06:18.680Z,25.96
2023-03-29T00:06:28.678Z,25.95
2023-03-29T00:06:38.695Z,25.96
2023-03-29T00:06:48.700Z,25.96
2023-03-29T00:06:58.707Z,25.97
2023-03-29T00:07:08.718Z,25.97
2023-03-29T00:07:18.732Z,25.97
2023-03-29T00:07:28.745Z,25.97
2023-03-29T00:07:38.748Z,25.96
2023-03-29T00:07:48.759Z,25.96
2023-03-29T00:07:58.762Z,25.97
2023-03-29T00:08:08.766Z,25.97
2023-03-29T00:08:18.878Z,25.97
2023-03-29T00:08:28.892Z,25.97
2023-03-29T00:08:38.916Z,25.98
2023-03-29T00:08:48.920Z,25.97
2023-03-29T00:08:58.921Z,25.97
2023-03-29T00:09:09.216Z,25.98
2023-03-29T00:09:19.206Z,25.97
2023-03-29T00:09:29.204Z,25.98
2023-03-29T00:09:39.582Z,25.98
2023-03-29T00:09:49.581Z,25.97
2023-03-29T00:09:59.584Z,25.98
2023-03-29T00:10:09.615Z,25.98
2023-03-29T00:10:19.625Z,25.98
2023-03-29T00:10:29.618Z,25.98
2023-03-29T00:10:39.623Z,25.99
2023-03-29T00:10:49.638Z,25.99
2023-03-29T00:10:59.883Z,25.99
2023-03-29T00:11:09.702Z,25.99
2023-03-29T00:11:19.698Z,25.98
2023-03-29T00:11:29.715Z,25.98
2023-03-29T00:11:39.721Z,25.98
2023-03-29T00:11:49.793Z,25.98
2023-03-29T00:11:59.815Z,25.98
2023-03-29T00:12:09.821Z,26.00
2023-03-29T00:12:19.822Z,26.00
2023-03-29T00:12:29.835Z,25.99
2023-03-29T00:12:39.845Z,25.99
2023-03-29T00:12:49.851Z,26.00
2023-03-29T00:12:59.868Z,26.00
2023-03-29T00:13:09.880Z,26.01
2023-03-29T00:13:19.880Z,26.00
2023-03-29T00:13:29.905Z,26.01
2023-03-29T00:13:39.901Z,26.01
2023-03-29T00:13:49.923Z,26.01
2023-03-29T00:13:59.920Z,26.01
2023-03-29T00:14:09.970Z,26.00
2023-03-29T00:14:19.975Z,26.01
2023-03-29T00:14:29.989Z,26.01
2023-03-29T00:14:39.997Z,26.01
2023-03-29T00:14:49.987Z,26.01
2023-03-29T00:15:00.006Z,26.01
2023-03-29T00:15:10.142Z,26.01
2023-03-29T00:15:20.139Z,26.01
2023-03-29T00:15:30.159Z,26.01
2023-03-29T00:15:40.158Z,26.01
2023-03-29T00:15:50.168Z,26.00
2023-03-29T00:16:00.426Z,26.00
2023-03-29T00:16:10.551Z,26.01
2023-03-29T00:16:20.596Z,26.00
2023-03-29T00:16:30.900Z,26.00
2023-03-29T00:16:40.983Z,25.99
2023-03-29T00:16:51.053Z,25.99
2023-03-29T00:17:01.023Z,25.98
2023-03-29T00:17:11.053Z,25.98
2023-03-29T00:17:21.067Z,25.99
2023-03-29T00:17:31.238Z,25.99
2023-03-29T00:17:41.316Z,25.99
2023-03-29T00:17:51.376Z,25.98
2023-03-29T00:18:01.413Z,25.98
2023-03-29T00:18:11.673Z,25.99
2023-03-29T00:18:21.675Z,25.98
2023-03-29T00:18:31.678Z,25.98
2023-03-29T00:18:41.731Z,25.98
2023-03-29T00:18:51.728Z,25.97
2023-03-29T00:19:01.730Z,25.97
2023-03-29T00:19:11.851Z,25.97
2023-03-29T00:19:21.870Z,25.97
2023-03-29T00:19:31.859Z,25.97
2023-03-29T00:19:41.878Z,25.97
2023-03-29T00:19:52.152Z,25.97
2023-03-29T00:20:02.151Z,25.97
2023-03-29T00:20:12.143Z,25.97
2023-03-29T00:20:22.152Z,25.97
2023-03-29T00:20:32.271Z,25.97
2023-03-29T00:20:42.283Z,25.96
2023-03-29T00:20:52.343Z,25.96
2023-03-29T00:21:02.617Z,25.95
2023-03-29T00:21:12.383Z,25.94
2023-03-29T00:21:22.399Z,25.94
2023-03-29T00:21:32.661Z,25.94
2023-03-29T00:21:42.654Z,25.93
2023-03-29T00:21:52.798Z,25.93
2023-03-29T00:22:03.035Z,25.93
2023-03-29T00:22:13.166Z,25.94
2023-03-29T00:22:23.171Z,25.93
2023-03-29T00:22:33.450Z,25.93
2023-03-29T00:22:43.446Z,25.93
2023-03-29T00:22:53.453Z,25.93
2023-03-29T00:23:03.463Z,25.93
2023-03-29T00:23:13.483Z,25.93
2023-03-29T00:23:23.482Z,25.93
2023-03-29T00:23:33.499Z,25.93
2023-03-29T00:23:43.511Z,25.93
2023-03-29T00:23:53.505Z,25.93
2023-03-29T00:24:03.519Z,25.93
2023-03-29T00:24:13.522Z,25.93
2023-03-29T00:24:23.542Z,25.93
2023-03-29T00:24:33.558Z,25.93
2023-03-29T00:24:43.559Z,25.93
2023-03-29T00:24:53.578Z,25.93
2023-03-29T00:25:03.584Z,25.92
2023-03-29T00:25:13.598Z,25.93
2023-03-29T00:25:23.601Z,25.92
2023-03-29T00:25:33.617Z,25.92
2023-03-29T00:25:43.619Z,25.92
2023-03-29T00:25:53.637Z,25.92
2023-03-29T00:26:05.229Z,25.92
2023-03-29T00:26:13.741Z,25.90
2023-03-29T00:26:23.730Z,25.90
2023-03-29T00:26:33.728Z,25.90
2023-03-29T00:26:43.748Z,25.90
2023-03-29T00:26:53.742Z,25.90
2023-03-29T00:27:03.743Z,25.90
2023-03-29T00:27:13.871Z,25.90
2023-03-29T00:27:23.879Z,25.89
2023-03-29T00:27:33.915Z,25.89
2023-03-29T00:27:43.936Z,25.89
2023-03-29T00:27:54.043Z,25.88
2023-03-29T00:28:04.059Z,25.88
2023-03-29T00:28:14.061Z,25.89
2023-03-29T00:28:24.078Z,25.89
2023-03-29T00:28:34.095Z,25.89
2023-03-29T00:28:44.134Z,25.89
2023-03-29T00:28:54.140Z,25.89
2023-03-29T00:29:04.159Z,25.89
2023-03-29T00:29:14.162Z,25.90
2023-03-29T00:29:24.174Z,25.90
2023-03-29T00:29:34.185Z,25.90
2023-03-29T00:29:44.192Z,25.90
2023-03-29T00:29:54.206Z,25.89
2023-03-29T00:30:04.217Z,25.89
2023-03-29T00:30:14.225Z,25.89
2023-03-29T00:30:24.240Z,25.89
2023-03-29T00:30:34.398Z,25.89
2023-03-29T00:30:44.282Z,25.88
2023-03-29T00:30:54.361Z,25.88
2023-03-29T00:31:04.673Z,25.87
2023-03-29T00:31:14.452Z,25.87
2023-03-29T00:31:24.516Z,25.86
2023-03-29T00:31:34.599Z,25.88
2023-03-29T00:31:44.727Z,25.86
2023-03-29T00:31:54.861Z,25.88
2023-03-29T00:32:04.785Z,25.87
2023-03-29T00:32:14.798Z,25.87
2023-03-29T00:32:25.086Z,25.87
2023-03-29T00:32:35.114Z,25.86
2023-03-29T00:32:45.188Z,25.86
2023-03-29T00:32:55.242Z,25.86
2023-03-29T00:33:05.314Z,25.85
2023-03-29T00:33:15.326Z,25.85
2023-03-29T00:33:25.322Z,25.85
2023-03-29T00:33:35.454Z,25.85
2023-03-29T00:33:45.462Z,25.85
2023-03-29T00:33:55.585Z,25.85
2023-03-29T00:34:05.723Z,25.85
2023-03-29T00:34:15.712Z,25.85
2023-03-29T00:34:25.716Z,25.85
2023-03-29T00:34:35.721Z,25.85
2023-03-29T00:34:45.731Z,25.84
2023-03-29T00:34:55.776Z,25.84
2023-03-29T00:35:05.755Z,25.84
2023-03-29T00:35:15.880Z,25.84
2023-03-29T00:35:25.938Z,25.82
2023-03-29T00:35:35.999Z,25.83
2023-03-29T00:35:46.303Z,25.82
2023-03-29T00:35:56.399Z,25.83
2023-03-29T00:36:06.432Z,25.82
2023-03-29T00:36:16.440Z,25.82
2023-03-29T00:36:26.441Z,25.82
2023-03-29T00:36:36.464Z,25.82
2023-03-29T00:36:46.479Z,25.81
2023-03-29T00:36:56.497Z,25.82
2023-03-29T00:37:06.500Z,25.81
2023-03-29T00:37:16.515Z,25.81
2023-03-29T00:37:26.517Z,25.81
2023-03-29T00:37:36.525Z,25.80
2023-03-29T00:37:46.537Z,25.80
2023-03-29T00:37:56.552Z,25.79
2023-03-29T00:38:06.587Z,25.79
2023-03-29T00:38:16.605Z,25.79
2023-03-29T00:38:26.609Z,25.79
2023-03-29T00:38:36.622Z,25.79
2023-03-29T00:38:46.641Z,25.79
2023-03-29T00:38:56.651Z,25.79
2023-03-29T00:39:06.651Z,25.79
2023-03-29T00:39:16.659Z,25.79
2023-03-29T00:39:26.671Z,25.79
2023-03-29T00:39:36.680Z,25.79
2023-03-29T00:39:46.688Z,25.79
2023-03-29T00:39:56.698Z,25.79
2023-03-29T00:40:06.714Z,25.79
2023-03-29T00:40:16.726Z,25.79
2023-03-29T00:40:26.731Z,25.79
2023-03-29T00:40:36.744Z,25.78
2023-03-29T00:40:46.769Z,25.77
2023-03-29T00:40:56.856Z,25.77
2023-03-29T00:41:06.865Z,25.78
2023-03-29T00:41:16.988Z,25.77
2023-03-29T00:41:26.986Z,25.77
2023-03-29T00:41:36.995Z,25.77
2023-03-29T00:41:47.007Z,25.76
2023-03-29T00:41:57.000Z,25.76
2023-03-29T00:42:07.260Z,25.76
2023-03-29T00:42:17.385Z,25.76
2023-03-29T00:42:27.385Z,25.75
2023-03-29T00:42:37.660Z,25.75
2023-03-29T00:42:47.670Z,25.75
2023-03-29T00:42:57.676Z,25.75
2023-03-29T00:43:07.691Z,25.75
2023-03-29T00:43:17.733Z,25.75
2023-03-29T00:43:27.732Z,25.75
2023-03-29T00:43:37.854Z,25.75
2023-03-29T00:43:47.860Z,25.75
2023-03-29T00:43:57.995Z,25.74
2023-03-29T00:44:08.008Z,25.74
2023-03-29T00:44:18.168Z,25.75
2023-03-29T00:44:28.173Z,25.75
2023-03-29T00:44:38.181Z,25.74
2023-03-29T00:44:48.186Z,25.74
2023-03-29T00:44:58.196Z,25.74
2023-03-29T00:45:08.203Z,25.74
2023-03-29T00:45:18.202Z,25.73
2023-03-29T00:45:28.207Z,25.73
2023-03-29T00:45:38.290Z,25.73
2023-03-29T00:45:48.316Z,25.73
2023-03-29T00:45:58.341Z,25.73
2023-03-29T00:46:08.366Z,25.73
2023-03-29T00:46:18.394Z,25.72
2023-03-29T00:46:28.445Z,25.72
2023-03-29T00:46:38.485Z,25.72
2023-03-29T00:46:48.601Z,25.72
2023-03-29T00:46:58.613Z,25.73
2023-03-29T00:47:08.637Z,25.73
2023-03-29T00:47:18.659Z,25.73
2023-03-29T00:47:28.680Z,25.72
2023-03-29T00:47:38.685Z,25.72
2023-03-29T00:47:48.732Z,25.71
2023-03-29T00:47:58.800Z,25.71
2023-03-29T00:48:08.891Z,25.71
2023-03-29T00:48:18.815Z,25.70
2023-03-29T00:48:28.817Z,25.70
2023-03-29T00:48:38.939Z,25.70
2023-03-29T00:48:48.939Z,25.70
2023-03-29T00:48:59.060Z,25.70
2023-03-29T00:49:09.076Z,25.70
2023-03-29T00:49:19.092Z,25.69
2023-03-29T00:49:29.224Z,25.69
2023-03-29T00:49:39.340Z,25.70
2023-03-29T00:49:49.355Z,25.69
2023-03-29T00:49:59.647Z,25.69
2023-03-29T00:50:09.655Z,25.69
2023-03-29T00:50:19.678Z,25.69
2023-03-29T00:50:29.795Z,25.69
2023-03-29T00:50:39.689Z,25.69
2023-03-29T00:50:49.708Z,25.69
2023-03-29T00:50:59.817Z,25.68
2023-03-29T00:51:10.066Z,25.68
2023-03-29T00:51:19.837Z,25.69
2023-03-29T00:51:29.839Z,25.68
2023-03-29T00:51:40.215Z,25.68
2023-03-29T00:51:50.222Z,25.68
2023-03-29T00:52:00.221Z,25.68
2023-03-29T00:52:10.222Z,25.67
2023-03-29T00:52:20.355Z,25.67
2023-03-29T00:52:30.383Z,25.67
2023-03-29T00:52:40.378Z,25.67
2023-03-29T00:52:50.383Z,25.66
2023-03-29T00:53:00.503Z,25.66
2023-03-29T00:53:10.513Z,25.66
2023-03-29T00:53:20.638Z,25.66
2023-03-29T00:53:30.642Z,25.66
2023-03-29T00:53:40.639Z,25.66
2023-03-29T00:53:50.650Z,25.66
2023-03-29T00:54:00.656Z,25.66
2023-03-29T00:54:10.778Z,25.65
2023-03-29T00:54:20.781Z,25.65
2023-03-29T00:54:30.910Z,25.66
2023-03-29T00:54:40.912Z,25.66
2023-03-29T00:54:51.030Z,25.66
2023-03-29T00:55:01.035Z,25.66
2023-03-29T00:55:11.060Z,25.65
2023-03-29T00:55:21.066Z,25.64
2023-03-29T00:55:31.435Z,25.64
2023-03-29T00:55:41.437Z,25.64
2023-03-29T00:55:51.441Z,25.63
2023-03-29T00:56:01.454Z,25.63
2023-03-29T00:56:11.462Z,25.63
2023-03-29T00:56:21.472Z,25.63
2023-03-29T00:56:31.462Z,25.63
2023-03-29T00:56:41.620Z,25.63
2023-03-29T00:56:51.557Z,25.63
2023-03-29T00:57:01.665Z,25.64
2023-03-29T00:57:12.007Z,25.63
2023-03-29T00:57:22.097Z,25.64
2023-03-29T00:57:32.081Z,25.62
2023-03-29T00:57:42.084Z,25.63
2023-03-29T00:57:52.094Z,25.62
2023-03-29T00:58:02.097Z,25.62
2023-03-29T00:58:12.098Z,25.62
2023-03-29T00:58:22.135Z,25.63
2023-03-29T00:58:32.127Z,25.61
2023-03-29T00:58:42.126Z,25.61
2023-03-29T00:58:52.137Z,25.61
2023-03-29T00:59:02.146Z,25.60
2023-03-29T00:59:12.147Z,25.60
2023-03-29T00:59:22.155Z,25.60
2023-03-29T00:59:32.160Z,25.60
2023-03-29T00:59:42.169Z,25.59
2023-03-29T00:59:52.180Z,25.58
2023-03-29T01:00:02.197Z,25.59
2023-03-29T01:00:12.218Z,25.59
2023-03-29T01:00:22.266Z,25.58
2023-03-29T01:00:32.304Z,25.59
2023-03-29T01:00:42.296Z,25.59
2023-03-29T01:00:52.378Z,25.59
2023-03-29T01:01:02.896Z,25.58
2023-03-29T01:01:12.485Z,25.58
2023-03-29T01:01:22.536Z,25.58
2023-03-29T01:01:32.560Z,25.57
2023-03-29T01:01:42.729Z,25.57
2023-03-29T01:01:52.699Z,25.57
2023-03-29T01:02:02.807Z,25.57
2023-03-29T01:02:12.875Z,25.57
2023-03-29T01:02:22.876Z,25.57
2023-03-29T01:02:33.081Z,25.57
2023-03-29T01:02:43.039Z,25.57
2023-03-29T01:02:53.074Z,25.56
2023-03-29T01:03:03.263Z,25.57
2023-03-29T01:03:13.364Z,25.57
2023-03-29T01:03:23.285Z,25.56
2023-03-29T01:03:33.426Z,25.56
2023-03-29T01:03:43.416Z,25.55
2023-03-29T01:03:53.535Z,25.56
2023-03-29T01:04:03.596Z,25.55
2023-03-29T01:04:13.619Z,25.55
2023-03-29T01:04:23.622Z,25.56
2023-03-29T01:04:33.628Z,25.56
2023-03-29T01:04:43.628Z,25.55
2023-03-29T01:04:53.661Z,25.55
2023-03-29T01:05:03.688Z,25.55
2023-03-29T01:05:13.798Z,25.55
2023-03-29T01:05:23.676Z,25.54
2023-03-29T01:05:33.685Z,25.54
2023-03-29T01:05:43.686Z,25.54
2023-03-29T01:05:54.089Z,25.54
2023-03-29T01:06:04.095Z,25.54
2023-03-29T01:06:14.213Z,25.54
2023-03-29T01:06:24.522Z,25.53
2023-03-29T01:06:34.622Z,25.53
2023-03-29T01:06:44.668Z,25.53
2023-03-29T01:06:54.685Z,25.53
2023-03-29T01:07:04.816Z,25.53
2023-03-29T01:07:14.762Z,25.53
2023-03-29T01:07:24.790Z,25.53
2023-03-29T01:07:34.843Z,25.53
2023-03-29T01:07:44.888Z,25.53
2023-03-29T01:07:54.912Z,25.52
2023-03-29T01:08:04.918Z,25.52
2023-03-29T01:08:14.933Z,25.52
2023-03-29T01:08:24.936Z,25.52
2023-03-29T01:08:34.963Z,25.52
2023-03-29T01:08:44.951Z,25.52
2023-03-29T01:08:54.956Z,25.52
2023-03-29T01:09:04.958Z,25.53
2023-03-29T01:09:15.342Z,25.53
2023-03-29T01:09:25.355Z,25.52
2023-03-29T01:09:35.361Z,25.52
2023-03-29T01:09:45.369Z,25.51
2023-03-29T01:09:55.378Z,25.50
2023-03-29T01:10:05.390Z,25.51
2023-03-29T01:10:15.397Z,25.51
2023-03-29T01:10:25.414Z,25.51
2023-03-29T01:10:35.421Z,25.50
2023-03-29T01:10:45.431Z,25.51
2023-03-29T01:10:55.444Z,25.50
2023-03-29T01:11:05.512Z,25.50
2023-03-29T01:11:15.500Z,25.50
2023-03-29T01:11:25.499Z,25.50
2023-03-29T01:11:35.517Z,25.50
2023-03-29T01:11:45.510Z,25.51
2023-03-29T01:11:55.532Z,25.51
2023-03-29T01:12:05.573Z,25.51
2023-03-29T01:12:15.577Z,25.50
2023-03-29T01:12:25.568Z,25.50
2023-03-29T01:12:35.588Z,25.51
2023-03-29T01:12:45.591Z,25.51
2023-03-29T01:12:55.583Z,25.51
2023-03-29T01:13:05.585Z,25.50
2023-03-29T01:13:15.603Z,25.50
2023-03-29T01:13:25.612Z,25.50
2023-03-29T01:13:35.746Z,25.50
2023-03-29T01:13:45.745Z,25.49
2023-03-29T01:13:55.746Z,25.49
2023-03-29T01:14:05.752Z,25.49
2023-03-29T01:14:15.872Z,25.49
2023-03-29T01:14:26.006Z,25.49
2023-03-29T01:14:36.122Z,25.49
2023-03-29T01:14:46.120Z,25.49
2023-03-29T01:14:56.386Z,25.49
2023-03-29T01:15:06.387Z,25.50
2023-03-29T01:15:16.396Z,25.50
2023-03-29T01:15:26.419Z,25.50
2023-03-29T01:15:36.431Z,25.49
2023-03-29T01:15:46.444Z,25.49
2023-03-29T01:15:56.509Z,25.49
2023-03-29T01:16:06.616Z,25.48
2023-03-29T01:16:16.636Z,25.49
2023-03-29T01:16:26.684Z,25.49
2023-03-29T01:16:36.738Z,25.49
2023-03-29T01:16:46.772Z,25.48
2023-03-29T01:16:56.841Z,25.48
2023-03-29T01:17:06.847Z,25.48
2023-03-29T01:17:16.856Z,25.48
2023-03-29T01:17:26.911Z,25.47
2023-03-29T01:17:36.927Z,25.47
2023-03-29T01:17:47.264Z,25.48
2023-03-29T01:17:57.337Z,25.46
2023-03-29T01:18:07.406Z,25.46
2023-03-29T01:18:17.421Z,25.47
2023-03-29T01:18:27.427Z,25.47
2023-03-29T01:18:37.434Z,25.47
2023-03-29T01:18:47.455Z,25.46
2023-03-29T01:18:57.442Z,25.46
2023-03-29T01:19:07.447Z,25.45
2023-03-29T01:19:17.447Z,25.45
2023-03-29T01:19:27.460Z,25.45
2023-03-29T01:19:37.576Z,25.45
2023-03-29T01:19:47.577Z,25.45
2023-03-29T01:19:57.592Z,25.45
2023-03-29T01:20:07.621Z,25.44
2023-03-29T01:20:17.616Z,25.45
2023-03-29T01:20:27.618Z,25.45
2023-03-29T01:20:37.885Z,25.45
2023-03-29T01:20:47.884Z,25.46
2023-03-29T01:20:57.911Z,25.46
2023-03-29T01:21:07.914Z,25.46
2023-03-29T01:21:17.923Z,25.45
2023-03-29T01:21:27.925Z,25.45
2023-03-29T01:21:38.051Z,25.45
2023-03-29T01:21:48.049Z,25.45
2023-03-29T01:21:58.064Z,25.45
2023-03-29T01:22:08.075Z,25.45
2023-03-29T01:22:18.353Z,25.45
2023-03-29T01:22:28.379Z,25.45
2023-03-29T01:22:38.362Z,25.44
2023-03-29T01:22:48.377Z,25.45
2023-03-29T01:22:58.378Z,25.44
2023-03-29T01:23:08.381Z,25.45
2023-03-29T01:23:18.502Z,25.45
2023-03-29T01:23:28.503Z,25.44
2023-03-29T01:23:38.532Z,25.44
2023-03-29T01:23:48.528Z,25.44
2023-03-29T01:23:58.795Z,25.43
2023-03-29T01:24:08.796Z,25.44
2023-03-29T01:24:18.806Z,25.43
2023-03-29T01:24:28.802Z,25.43
2023-03-29T01:24:38.927Z,25.43
2023-03-29T01:24:48.936Z,25.43
2023-03-29T01:24:58.946Z,25.42
2023-03-29T01:25:08.952Z,25.43
2023-03-29T01:25:18.980Z,25.42
2023-03-29T01:25:28.976Z,25.42
2023-03-29T01:25:39.241Z,25.43
2023-03-29T01:25:49.237Z,25.43
2023-03-29T01:25:59.376Z,25.42
2023-03-29T01:26:09.632Z,25.42
2023-03-29T01:26:19.639Z,25.43
2023-03-29T01:26:29.633Z,25.42
2023-03-29T01:26:39.638Z,25.42
2023-03-29T01:26:49.641Z,25.43
2023-03-29T01:26:59.716Z,25.43
2023-03-29T01:27:09.724Z,25.43
2023-03-29T01:27:19.726Z,25.42
2023-03-29T01:27:29.754Z,25.43
2023-03-29T01:27:39.732Z,25.42
2023-03-29T01:27:49.745Z,25.42
2023-03-29T01:27:59.756Z,25.42
2023-03-29T01:28:09.760Z,25.42
2023-03-29T01:28:19.885Z,25.42
2023-03-29T01:28:29.892Z,25.42
2023-03-29T01:28:40.039Z,25.42
2023-03-29T01:28:50.029Z,25.42
2023-03-29T01:29:00.160Z,25.43
2023-03-29T01:29:10.162Z,25.42
2023-03-29T01:29:20.284Z,25.43
2023-03-29T01:29:30.553Z,25.42
2023-03-29T01:29:40.578Z,25.42
2023-03-29T01:29:50.579Z,25.41
2023-03-29T01:30:00.958Z,25.41
2023-03-29T01:30:10.967Z,25.42
2023-03-29T01:30:21.102Z,25.41
2023-03-29T01:30:31.351Z,25.42
2023-03-29T01:30:41.487Z,25.42
2023-03-29T01:30:51.495Z,25.41
2023-03-29T01:31:01.916Z,25.41
2023-03-29T01:31:11.902Z,25.41
2023-03-29T01:31:21.941Z,25.41
2023-03-29T01:31:32.183Z,25.41
2023-03-29T01:31:42.244Z,25.40
2023-03-29T01:31:52.358Z,25.40
2023-03-29T01:32:02.708Z,25.40
2023-03-29T01:32:12.745Z,25.40
2023-03-29T01:32:22.800Z,25.40
2023-03-29T01:32:33.069Z,25.40
2023-03-29T01:32:43.118Z,25.39
2023-03-29T01:32:53.189Z,25.40
2023-03-29T01:33:03.528Z,25.40
2023-03-29T01:33:13.532Z,25.41
2023-03-29T01:33:23.595Z,25.40
2023-03-29T01:33:33.599Z,25.40
2023-03-29T01:33:43.730Z,25.40
2023-03-29T01:33:53.740Z,25.40
2023-03-29T01:34:03.879Z,25.39
2023-03-29T01:34:13.868Z,25.39
2023-03-29T01:34:23.994Z,25.40
2023-03-29T01:34:34.031Z,25.40
2023-03-29T01:34:44.033Z,25.40
2023-03-29T01:34:54.025Z,25.40
2023-03-29T01:35:04.046Z,25.40
2023-03-29T01:35:14.067Z,25.40
2023-03-29T01:35:24.049Z,25.39
2023-03-29T01:35:34.081Z,25.39
2023-03-29T01:35:44.158Z,25.38
2023-03-29T01:35:54.210Z,25.38
2023-03-29T01:36:04.280Z,25.39
2023-03-29T01:36:14.291Z,25.38
2023-03-29T01:36:24.292Z,25.38
2023-03-29T01:36:34.304Z,25.38
2023-03-29T01:36:44.316Z,25.39
2023-03-29T01:36:54.328Z,25.39
2023-03-29T01:37:04.342Z,25.38
2023-03-29T01:37:14.334Z,25.38
2023-03-29T01:37:24.336Z,25.38
2023-03-29T01:37:34.737Z,25.38
2023-03-29T01:37:44.728Z,25.39
2023-03-29T01:37:54.722Z,25.38
2023-03-29T01:38:04.732Z,25.39
2023-03-29T01:38:14.737Z,25.38
2023-03-29T01:38:24.745Z,25.38
2023-03-29T01:38:34.743Z,25.39
2023-03-29T01:38:44.762Z,25.38
2023-03-29T01:38:54.771Z,25.39
2023-03-29T01:39:04.788Z,25.39
2023-03-29T01:39:14.786Z,25.39
2023-03-29T01:39:24.799Z,25.39
2023-03-29T01:39:34.816Z,25.39
2023-03-29T01:39:44.822Z,25.38
2023-03-29T01:39:54.939Z,25.38
2023-03-29T01:40:04.948Z,25.38
2023-03-29T01:40:14.954Z,25.38
2023-03-29T01:40:25.210Z,25.38
2023-03-29T01:40:35.348Z,25.38
2023-03-29T01:40:45.391Z,25.38
2023-03-29T01:40:55.633Z,25.37
2023-03-29T01:41:05.649Z,25.38
2023-03-29T01:41:15.661Z,25.38
2023-03-29T01:41:25.653Z,25.38
2023-03-29T01:41:35.664Z,25.38
2023-03-29T01:41:45.673Z,25.37
2023-03-29T01:41:55.692Z,25.38
2023-03-29T01:42:05.695Z,25.38
2023-03-29T01:42:15.817Z,25.38
2023-03-29T01:42:25.817Z,25.38
2023-03-29T01:42:36.075Z,25.38
2023-03-29T01:42:46.096Z,25.38
2023-03-29T01:42:56.116Z,25.38
2023-03-29T01:43:06.115Z,25.38
2023-03-29T01:43:16.133Z,25.38
2023-03-29T01:43:26.137Z,25.38
2023-03-29T01:43:36.174Z,25.37
2023-03-29T01:43:46.161Z,25.37
2023-03-29T01:43:56.165Z,25.38
2023-03-29T01:44:06.167Z,25.37
2023-03-29T01:44:16.190Z,25.37
2023-03-29T01:44:26.199Z,25.36
2023-03-29T01:44:36.203Z,25.37
2023-03-29T01:44:46.208Z,25.37
2023-03-29T01:44:56.230Z,25.37
2023-03-29T01:45:06.236Z,25.37
2023-03-29T01:45:16.246Z,25.37
2023-03-29T01:45:26.243Z,25.37
2023-03-29T01:45:36.367Z,25.36
2023-03-29T01:45:46.449Z,25.37
2023-03-29T01:45:56.483Z,25.37
2023-03-29T01:46:06.544Z,25.37
2023-03-29T01:46:16.636Z,25.37
2023-03-29T01:46:26.676Z,25.37
2023-03-29T01:46:36.816Z,25.36
2023-03-29T01:46:46.843Z,25.36
2023-03-29T01:46:56.851Z,25.36
2023-03-29T01:47:06.856Z,25.37
2023-03-29T01:47:16.865Z,25.36
2023-03-29T01:47:26.896Z,25.36
2023-03-29T01:47:36.945Z,25.36
2023-03-29T01:47:47.013Z,25.36
2023-03-29T01:47:57.103Z,25.36
2023-03-29T01:48:07.108Z,25.36
2023-03-29T01:48:17.102Z,25.36
2023-03-29T01:48:27.109Z,25.36
2023-03-29T01:48:37.122Z,25.36
2023-03-29T01:48:47.129Z,25.35
2023-03-29T01:48:57.248Z,25.36
2023-03-29T01:49:07.250Z,25.35
2023-03-29T01:49:17.262Z,25.35
2023-03-29T01:49:27.546Z,25.35
2023-03-29T01:49:37.537Z,25.34
2023-03-29T01:49:47.555Z,25.34
2023-03-29T01:49:57.562Z,25.35
2023-03-29T01:50:07.573Z,25.35
2023-03-29T01:50:17.597Z,25.35
2023-03-29T01:50:27.588Z,25.35
2023-03-29T01:50:37.676Z,25.36
2023-03-29T01:50:47.673Z,25.35
2023-03-29T01:50:57.687Z,25.35
2023-03-29T01:51:07.708Z,25.35
2023-03-29T01:51:17.713Z,25.36
2023-03-29T01:51:27.720Z,25.36
2023-03-29T01:51:37.722Z,25.35
2023-03-29T01:51:47.805Z,25.35
2023-03-29T01:51:57.808Z,25.35
2023-03-29T01:52:07.816Z,25.35
2023-03-29T01:52:17.813Z,25.35
2023-03-29T01:52:27.828Z,25.35
2023-03-29T01:52:37.833Z,25.35
2023-03-29T01:52:47.834Z,25.35
2023-03-29T01:52:57.839Z,25.35
2023-03-29T01:53:07.855Z,25.35
2023-03-29T01:53:17.918Z,25.35
2023-03-29T01:53:27.920Z,25.35
2023-03-29T01:53:38.090Z,25.35
2023-03-29T01:53:48.090Z,25.35
2023-03-29T01:53:58.106Z,25.34
2023-03-29T01:54:08.101Z,25.35
2023-03-29T01:54:18.168Z,25.35
2023-03-29T01:54:28.148Z,25.34
2023-03-29T01:54:38.414Z,25.34
2023-03-29T01:54:48.429Z,25.34
2023-03-29T01:54:58.420Z,25.34
2023-03-29T01:55:08.426Z,25.34
2023-03-29T01:55:18.480Z,25.34
2023-03-29T01:55:28.520Z,25.34
2023-03-29T01:55:38.515Z,25.34
2023-03-29T01:55:48.538Z,25.34
2023-03-29T01:55:58.574Z,25.33
2023-03-29T01:56:08.567Z,25.33
2023-03-29T01:56:18.965Z,25.34
2023-03-29T01:56:28.963Z,25.33
2023-03-29T01:56:39.121Z,25.33
2023-03-29T01:56:49.381Z,25.32
2023-03-29T01:56:59.463Z,25.34
2023-03-29T01:57:09.480Z,25.33
2023-03-29T01:57:19.516Z,25.33
2023-03-29T01:57:29.575Z,25.33
2023-03-29T01:57:39.590Z,25.33
2023-03-29T01:57:49.594Z,25.33
2023-03-29T01:57:59.605Z,25.33
2023-03-29T01:58:09.622Z,25.33
2023-03-29T01:58:19.619Z,25.33
2023-03-29T01:58:29.636Z,25.32
2023-03-29T01:58:39.646Z,25.32
2023-03-29T01:58:49.646Z,25.33
2023-03-29T01:58:59.662Z,25.33
2023-03-29T01:59:09.663Z,25.34
2023-03-29T01:59:19.667Z,25.33
2023-03-29T01:59:29.684Z,25.32
2023-03-29T01:59:39.672Z,25.32
2023-03-29T01:59:49.678Z,25.32
2023-03-29T01:59:59.682Z,25.33
2023-03-29T02:00:09.691Z,25.32
2023-03-29T02:00:19.809Z,25.32
2023-03-29T02:00:29.877Z,25.32
2023-03-29T02:00:39.872Z,25.32
2023-03-29T02:00:50.120Z,25.32
2023-03-29T02:01:00.553Z,25.33
2023-03-29T02:01:10.402Z,25.32
2023-03-29T02:01:20.649Z,25.32
2023-03-29T02:01:30.678Z,25.32
2023-03-29T02:01:40.777Z,25.32
2023-03-29T02:01:50.722Z,25.32
2023-03-29T02:02:00.851Z,25.32
2023-03-29T02:02:10.911Z,25.32
2023-03-29T02:02:20.994Z,25.32
2023-03-29T02:02:31.128Z,25.32
2023-03-29T02:02:41.116Z,25.32
2023-03-29T02:02:51.128Z,25.33
2023-03-29T02:03:01.457Z,25.33
2023-03-29T02:03:11.544Z,25.32
2023-03-29T02:03:21.564Z,25.32
2023-03-29T02:03:31.576Z,25.33
2023-03-29T02:03:41.608Z,25.32
2023-03-29T02:03:51.601Z,25.32
2023-03-29T02:04:01.608Z,25.33
2023-03-29T02:04:11.742Z,25.32
2023-03-29T02:04:21.750Z,25.33
2023-03-29T02:04:31.778Z,25.32
2023-03-29T02:04:41.784Z,25.32
2023-03-29T02:04:51.793Z,25.32
2023-03-29T02:05:01.914Z,25.32
2023-03-29T02:05:11.923Z,25.31
2023-03-29T02:05:21.979Z,25.32
2023-03-29T02:05:31.999Z,25.32
2023-03-29T02:05:41.993Z,25.32
2023-03-29T02:05:52.262Z,25.33
2023-03-29T02:06:02.278Z,25.32
2023-03-29T02:06:12.276Z,25.32
2023-03-29T02:06:22.666Z,25.32
2023-03-29T02:06:32.684Z,25.31
2023-03-29T02:06:42.705Z,25.31
2023-03-29T02:06:52.694Z,25.32
2023-03-29T02:07:02.701Z,25.32
2023-03-29T02:07:12.692Z,25.32
2023-03-29T02:07:22.826Z,25.32
2023-03-29T02:07:32.824Z,25.31
2023-03-29T02:07:42.826Z,25.32
2023-03-29T02:07:52.846Z,25.32
2023-03-29T02:08:03.104Z,25.32
2023-03-29T02:08:13.104Z,25.32
2023-03-29T02:08:23.113Z,25.32
2023-03-29T02:08:33.140Z,25.31
2023-03-29T02:08:43.139Z,25.30
2023-03-29T02:08:53.141Z,25.32
2023-03-29T02:09:03.159Z,25.32
2023-03-29T02:09:13.169Z,25.31
2023-03-29T02:09:23.178Z,25.32